BAW600 EGLL-LIPZ
Flight info
| Callsign | BAW600 |
|---|---|
| Flight time | 1h 40m |
| Altitude | 36000 |
| Route | MAXIT Y803 MID L612 BOGNA UL612 VEULE DCT TEPRI DCT POGZI DCT GELTA DCT LUVAL DCT SHARA DCT DEVDI DCT RIPUS DCT RESIA DCT ADOSA L612 ALBET |
| Aircraft | A319/M-SDE3FGHIRWY/LB1 |
Departure
| Time | 2026-05-04 11:14 |
|---|---|
| Airport | London Heathrow Airport (EGLL) |
Arrival
| Time | 2026-05-04 12:54 |
|---|---|
| Airport | Venice Marco Polo Airport (LIPZ) |
| Time | Latitude | Longitude | Altitude | Speed | Heading |
|---|---|---|---|---|---|
| 2026-05-04 10:39 | 51.47403 | -0.48891 | 86 ft | 0 kts | 178° |
| 2026-05-04 10:59 | 51.47412 | -0.48891 | 89 ft | 3 kts | 178° |
| 2026-05-04 10:59 | 51.47431 | -0.48892 | 86 ft | 3 kts | 178° |
| 2026-05-04 10:59 | 51.47450 | -0.48893 | 86 ft | 3 kts | 178° |
| 2026-05-04 11:00 | 51.47468 | -0.48894 | 86 ft | 2 kts | 176° |
| 2026-05-04 11:01 | 51.47484 | -0.48915 | 89 ft | 0 kts | 67° |
| 2026-05-04 11:05 | 51.47010 | -0.48471 | 86 ft | 15 kts | 180° |
| 2026-05-04 11:06 | 51.46924 | -0.48471 | 86 ft | 10 kts | 179° |
| 2026-05-04 11:06 | 51.46849 | -0.48470 | 86 ft | 9 kts | 180° |
| 2026-05-04 11:06 | 51.46773 | -0.48466 | 86 ft | 13 kts | 169° |
| 2026-05-04 11:06 | 51.46742 | -0.48364 | 86 ft | 13 kts | 90° |
| 2026-05-04 11:08 | 51.46746 | -0.46946 | 86 ft | 13 kts | 88° |
| 2026-05-04 11:10 | 51.46748 | -0.45632 | 86 ft | 23 kts | 89° |
| 2026-05-04 11:12 | 51.46754 | -0.44405 | 86 ft | 16 kts | 89° |
| 2026-05-04 11:12 | 51.46755 | -0.44208 | 86 ft | 19 kts | 89° |
| 2026-05-04 11:12 | 51.46727 | -0.44060 | 88 ft | 13 kts | 155° |
| 2026-05-04 11:12 | 51.46630 | -0.44054 | 87 ft | 10 kts | 179° |
| 2026-05-04 11:13 | 51.46572 | -0.44053 | 86 ft | 9 kts | 179° |
| 2026-05-04 11:13 | 51.46505 | -0.44079 | 88 ft | 11 kts | 223° |
| 2026-05-04 11:13 | 51.46493 | -0.44214 | 86 ft | 17 kts | 269° |
| 2026-05-04 11:13 | 51.46492 | -0.44691 | 89 ft | 71 kts | 270° |
| 2026-05-04 11:14 | 51.46489 | -0.45789 | 86 ft | 125 kts | 270° |
| 2026-05-04 11:14 | 51.46484 | -0.47448 | 147 ft | 167 kts | 272° |
| 2026-05-04 11:14 | 51.46487 | -0.49237 | 880 ft | 157 kts | 273° |
| 2026-05-04 11:16 | 51.41561 | -0.62016 | 4719 ft | 268 kts | 180° |
| 2026-05-04 11:16 | 51.39738 | -0.61393 | 5717 ft | 268 kts | 162° |
| 2026-05-04 11:16 | 51.37970 | -0.60396 | 6724 ft | 271 kts | 161° |
| 2026-05-04 11:17 | 51.36200 | -0.59345 | 7720 ft | 272 kts | 161° |
| 2026-05-04 11:17 | 51.34430 | -0.58280 | 8706 ft | 273 kts | 161° |
| 2026-05-04 11:19 | 51.19749 | -0.57838 | 13295 ft | 339 kts | 192° |
| 2026-05-04 11:19 | 51.17427 | -0.58606 | 14015 ft | 343 kts | 192° |
| 2026-05-04 11:19 | 51.15075 | -0.59381 | 14687 ft | 347 kts | 192° |
| 2026-05-04 11:19 | 51.12703 | -0.60155 | 15372 ft | 350 kts | 192° |
| 2026-05-04 11:20 | 51.10306 | -0.60929 | 16053 ft | 353 kts | 192° |
| 2026-05-04 11:20 | 51.07860 | -0.61313 | 16696 ft | 357 kts | 178° |
| 2026-05-04 11:20 | 51.05423 | -0.60498 | 17349 ft | 362 kts | 159° |
| 2026-05-04 11:20 | 51.03266 | -0.58387 | 18011 ft | 369 kts | 139° |
| 2026-05-04 11:22 | 50.93608 | -0.33077 | 22106 ft | 396 kts | 122° |
| 2026-05-04 11:22 | 50.92215 | -0.29292 | 22650 ft | 399 kts | 122° |
| 2026-05-04 11:23 | 50.90808 | -0.25475 | 23179 ft | 403 kts | 122° |
| 2026-05-04 11:23 | 50.89385 | -0.21630 | 23684 ft | 406 kts | 122° |
| 2026-05-04 11:24 | 50.80655 | 0.01839 | 26420 ft | 418 kts | 124° |
| 2026-05-04 11:25 | 50.79189 | 0.05761 | 26861 ft | 420 kts | 124° |
| 2026-05-04 11:25 | 50.77700 | 0.09741 | 27308 ft | 423 kts | 125° |
| 2026-05-04 11:25 | 50.76198 | 0.13752 | 27753 ft | 425 kts | 125° |
| 2026-05-04 11:26 | 50.73171 | 0.21811 | 28629 ft | 429 kts | 126° |
| 2026-05-04 11:27 | 50.62295 | 0.50527 | 31081 ft | 444 kts | 125° |
| 2026-05-04 11:28 | 50.60705 | 0.54709 | 31369 ft | 446 kts | 125° |
| 2026-05-04 11:28 | 50.59115 | 0.58892 | 31800 ft | 445 kts | 125° |
| 2026-05-04 11:28 | 50.57529 | 0.63061 | 32252 ft | 443 kts | 125° |
| 2026-05-04 11:28 | 50.55948 | 0.67206 | 32709 ft | 441 kts | 125° |
| 2026-05-04 11:29 | 50.54368 | 0.71333 | 33169 ft | 439 kts | 126° |
| 2026-05-04 11:29 | 50.52794 | 0.75434 | 33634 ft | 438 kts | 126° |
| 2026-05-04 11:29 | 50.51224 | 0.79520 | 34086 ft | 436 kts | 126° |
| 2026-05-04 11:29 | 50.49659 | 0.83592 | 34444 ft | 436 kts | 125° |
| 2026-05-04 11:31 | 50.38561 | 1.12205 | 36024 ft | 440 kts | 125° |
| 2026-05-04 11:33 | 50.27426 | 1.40720 | 36013 ft | 438 kts | 126° |
| 2026-05-04 11:33 | 50.24224 | 1.48826 | 36013 ft | 438 kts | 126° |
| 2026-05-04 11:34 | 50.21014 | 1.56911 | 36013 ft | 438 kts | 126° |
| 2026-05-04 11:34 | 50.17781 | 1.65029 | 36000 ft | 445 kts | 126° |
| 2026-05-04 11:35 | 50.14497 | 1.73288 | 36012 ft | 457 kts | 126° |
| 2026-05-04 11:35 | 50.11129 | 1.81760 | 36007 ft | 461 kts | 126° |
| 2026-05-04 11:36 | 50.07732 | 1.90241 | 36001 ft | 461 kts | 126° |
| 2026-05-04 11:36 | 50.04323 | 1.98697 | 36002 ft | 461 kts | 126° |
| 2026-05-04 11:37 | 50.00903 | 2.07141 | 35996 ft | 461 kts | 126° |
| 2026-05-04 11:37 | 49.97482 | 2.15586 | 35992 ft | 461 kts | 126° |
| 2026-05-04 11:38 | 49.94645 | 2.22591 | 35986 ft | 461 kts | 126° |
| 2026-05-04 11:38 | 49.91220 | 2.31007 | 35960 ft | 461 kts | 127° |
| 2026-05-04 11:39 | 49.87785 | 2.39404 | 35968 ft | 461 kts | 127° |
| 2026-05-04 11:41 | 49.75730 | 2.68739 | 35989 ft | 462 kts | 127° |
| 2026-05-04 11:41 | 49.72260 | 2.77116 | 35988 ft | 463 kts | 127° |
| 2026-05-04 11:42 | 49.68783 | 2.85483 | 35979 ft | 463 kts | 127° |
| 2026-05-04 11:42 | 49.65292 | 2.93844 | 35992 ft | 463 kts | 127° |
| 2026-05-04 11:43 | 49.61799 | 3.02183 | 35995 ft | 463 kts | 127° |
| 2026-05-04 11:43 | 49.58330 | 3.10466 | 35996 ft | 463 kts | 127° |
| 2026-05-04 11:44 | 49.54830 | 3.18793 | 35964 ft | 463 kts | 127° |
| 2026-05-04 11:44 | 49.51328 | 3.27108 | 35972 ft | 463 kts | 128° |
| 2026-05-04 11:45 | 49.47813 | 3.35406 | 35972 ft | 463 kts | 128° |
| 2026-05-04 11:45 | 49.44287 | 3.43697 | 35975 ft | 463 kts | 128° |
| 2026-05-04 11:46 | 49.40760 | 3.51973 | 35980 ft | 463 kts | 128° |
| 2026-05-04 11:46 | 49.37221 | 3.60240 | 35960 ft | 463 kts | 128° |
| 2026-05-04 11:47 | 49.33679 | 3.68502 | 35968 ft | 463 kts | 128° |
| 2026-05-04 11:47 | 49.30137 | 3.76757 | 35979 ft | 463 kts | 128° |
| 2026-05-04 11:48 | 49.26588 | 3.84998 | 35978 ft | 463 kts | 128° |
| 2026-05-04 11:48 | 49.23022 | 3.93216 | 35978 ft | 463 kts | 128° |
| 2026-05-04 11:49 | 49.19458 | 4.01412 | 36004 ft | 463 kts | 128° |
| 2026-05-04 11:49 | 49.15889 | 4.09608 | 35999 ft | 463 kts | 128° |
| 2026-05-04 11:50 | 49.12341 | 4.17747 | 36001 ft | 463 kts | 128° |
| 2026-05-04 11:50 | 49.08769 | 4.25914 | 36002 ft | 463 kts | 129° |
| 2026-05-04 11:51 | 49.05182 | 4.34066 | 35994 ft | 462 kts | 129° |
| 2026-05-04 11:51 | 49.01605 | 4.42185 | 35965 ft | 462 kts | 129° |
| 2026-05-04 11:52 | 48.98016 | 4.50313 | 35970 ft | 462 kts | 129° |
| 2026-05-04 11:52 | 48.94419 | 4.58427 | 35981 ft | 462 kts | 129° |
| 2026-05-04 11:53 | 48.90823 | 4.66517 | 35982 ft | 462 kts | 129° |
| 2026-05-04 11:53 | 48.87211 | 4.74602 | 35996 ft | 462 kts | 129° |
| 2026-05-04 11:55 | 48.72690 | 5.06907 | 35997 ft | 463 kts | 129° |
| 2026-05-04 11:56 | 48.69067 | 5.14897 | 35997 ft | 464 kts | 129° |
| 2026-05-04 11:56 | 48.65402 | 5.22994 | 35977 ft | 463 kts | 129° |
| 2026-05-04 11:57 | 48.61779 | 5.30978 | 35983 ft | 464 kts | 129° |
| 2026-05-04 11:57 | 48.58116 | 5.38991 | 35988 ft | 463 kts | 130° |
| 2026-05-04 11:58 | 48.54442 | 5.47002 | 36001 ft | 464 kts | 130° |
| 2026-05-04 11:58 | 48.50766 | 5.54988 | 35997 ft | 464 kts | 130° |
| 2026-05-04 11:59 | 48.47075 | 5.62966 | 35986 ft | 464 kts | 130° |
| 2026-05-04 11:59 | 48.43373 | 5.70958 | 36017 ft | 465 kts | 130° |
| 2026-05-04 12:00 | 48.39667 | 5.78958 | 36020 ft | 465 kts | 130° |
| 2026-05-04 12:00 | 48.35964 | 5.86938 | 36023 ft | 465 kts | 130° |
| 2026-05-04 12:01 | 48.32245 | 5.94911 | 36033 ft | 466 kts | 130° |
| 2026-05-04 12:02 | 48.19165 | 6.22778 | 36029 ft | 467 kts | 130° |
| 2026-05-04 12:03 | 48.15404 | 6.30725 | 36028 ft | 467 kts | 130° |
| 2026-05-04 12:03 | 48.11640 | 6.38661 | 36030 ft | 467 kts | 130° |
| 2026-05-04 12:04 | 48.07877 | 6.46589 | 36009 ft | 468 kts | 130° |
| 2026-05-04 12:04 | 48.04102 | 6.54510 | 36018 ft | 468 kts | 130° |
| 2026-05-04 12:05 | 48.00313 | 6.62415 | 36019 ft | 468 kts | 130° |
| 2026-05-04 12:05 | 47.96945 | 6.70777 | 36029 ft | 476 kts | 117° |
| 2026-05-04 12:06 | 47.94493 | 6.79899 | 36001 ft | 477 kts | 116° |
| 2026-05-04 12:06 | 47.92002 | 6.89096 | 36022 ft | 479 kts | 116° |
| 2026-05-04 12:07 | 47.89488 | 6.98286 | 36018 ft | 478 kts | 116° |
| 2026-05-04 12:07 | 47.86980 | 7.07456 | 36016 ft | 478 kts | 116° |
| 2026-05-04 12:08 | 47.84465 | 7.16626 | 36009 ft | 478 kts | 116° |
| 2026-05-04 12:08 | 47.81938 | 7.25784 | 35986 ft | 478 kts | 116° |
| 2026-05-04 12:09 | 47.79403 | 7.34936 | 36021 ft | 479 kts | 116° |
| 2026-05-04 12:09 | 47.76858 | 7.44101 | 36007 ft | 479 kts | 116° |
| 2026-05-04 12:10 | 47.74264 | 7.53217 | 36000 ft | 477 kts | 121° |
| 2026-05-04 12:10 | 47.70641 | 7.61351 | 36000 ft | 472 kts | 130° |
| 2026-05-04 12:11 | 47.66742 | 7.69203 | 36005 ft | 473 kts | 130° |
| 2026-05-04 12:11 | 47.62838 | 7.77046 | 36005 ft | 473 kts | 130° |
| 2026-05-04 12:12 | 47.58929 | 7.84881 | 36004 ft | 473 kts | 130° |
| 2026-05-04 12:12 | 47.55010 | 7.92712 | 36008 ft | 473 kts | 130° |
| 2026-05-04 12:14 | 47.39341 | 8.23831 | 35994 ft | 473 kts | 130° |
| 2026-05-04 12:15 | 47.35402 | 8.31602 | 35986 ft | 473 kts | 130° |
| 2026-05-04 12:15 | 47.31458 | 8.39357 | 35977 ft | 473 kts | 130° |
| 2026-05-04 12:16 | 47.27510 | 8.47089 | 35987 ft | 472 kts | 130° |
| 2026-05-04 12:16 | 47.23571 | 8.54843 | 35987 ft | 473 kts | 130° |
| 2026-05-04 12:17 | 47.19712 | 8.62683 | 35987 ft | 474 kts | 129° |
| 2026-05-04 12:17 | 47.15869 | 8.70533 | 35974 ft | 473 kts | 129° |
| 2026-05-04 12:18 | 47.11997 | 8.78358 | 35990 ft | 473 kts | 129° |
| 2026-05-04 12:18 | 47.08108 | 8.86143 | 36002 ft | 473 kts | 129° |
| 2026-05-04 12:19 | 47.04215 | 8.93910 | 36002 ft | 473 kts | 129° |
| 2026-05-04 12:19 | 47.00321 | 9.01677 | 36007 ft | 473 kts | 129° |
| 2026-05-04 12:20 | 46.96424 | 9.09433 | 36005 ft | 473 kts | 129° |
| 2026-05-04 12:20 | 46.92546 | 9.17120 | 36034 ft | 472 kts | 129° |
| 2026-05-04 12:21 | 46.88638 | 9.24831 | 36033 ft | 472 kts | 129° |
| 2026-05-04 12:21 | 46.84736 | 9.32542 | 36031 ft | 472 kts | 129° |
| 2026-05-04 12:22 | 46.80828 | 9.40252 | 36040 ft | 472 kts | 129° |
| 2026-05-04 12:22 | 46.76909 | 9.47932 | 36056 ft | 472 kts | 130° |
| 2026-05-04 12:23 | 46.72982 | 9.55606 | 36096 ft | 472 kts | 130° |
| 2026-05-04 12:23 | 46.69058 | 9.63269 | 36128 ft | 472 kts | 130° |
| 2026-05-04 12:24 | 46.65140 | 9.70934 | 36145 ft | 472 kts | 130° |
| 2026-05-04 12:24 | 46.61212 | 9.78594 | 36163 ft | 472 kts | 130° |
| 2026-05-04 12:25 | 46.57267 | 9.86210 | 36163 ft | 472 kts | 130° |
| 2026-05-04 12:25 | 46.53312 | 9.93818 | 36153 ft | 472 kts | 130° |
| 2026-05-04 12:26 | 46.49360 | 10.01421 | 36162 ft | 472 kts | 130° |
| 2026-05-04 12:26 | 46.44790 | 10.08024 | 36159 ft | 465 kts | 144° |
| 2026-05-04 12:27 | 46.39791 | 10.14001 | 36129 ft | 466 kts | 143° |
| 2026-05-04 12:27 | 46.34793 | 10.19983 | 36134 ft | 466 kts | 143° |
| 2026-05-04 12:28 | 46.29793 | 10.25964 | 36137 ft | 467 kts | 143° |
| 2026-05-04 12:28 | 46.25637 | 10.30913 | 36148 ft | 459 kts | 143° |
| 2026-05-04 12:29 | 46.23205 | 10.33794 | 36152 ft | 448 kts | 143° |
| 2026-05-04 12:29 | 46.20808 | 10.36628 | 36099 ft | 443 kts | 143° |
| 2026-05-04 12:29 | 46.18429 | 10.39442 | 35750 ft | 441 kts | 143° |
| 2026-05-04 12:29 | 46.16057 | 10.42247 | 35417 ft | 441 kts | 143° |
| 2026-05-04 12:30 | 46.13686 | 10.45044 | 35096 ft | 441 kts | 143° |
| 2026-05-04 12:30 | 46.11316 | 10.47841 | 34779 ft | 440 kts | 143° |
| 2026-05-04 12:30 | 46.08946 | 10.50643 | 34465 ft | 440 kts | 143° |
| 2026-05-04 12:30 | 46.06581 | 10.53441 | 34144 ft | 440 kts | 143° |
| 2026-05-04 12:31 | 46.04214 | 10.56236 | 33790 ft | 440 kts | 143° |
| 2026-05-04 12:31 | 46.01846 | 10.59026 | 33434 ft | 441 kts | 143° |
| 2026-05-04 12:31 | 45.99466 | 10.61826 | 33086 ft | 442 kts | 143° |
| 2026-05-04 12:31 | 45.97084 | 10.64621 | 32738 ft | 443 kts | 143° |
| 2026-05-04 12:32 | 45.94691 | 10.67426 | 32407 ft | 444 kts | 143° |
| 2026-05-04 12:32 | 45.89909 | 10.73026 | 31712 ft | 443 kts | 143° |
| 2026-05-04 12:32 | 45.87527 | 10.75811 | 31383 ft | 441 kts | 143° |
| 2026-05-04 12:33 | 45.85149 | 10.78587 | 31053 ft | 439 kts | 144° |
| 2026-05-04 12:33 | 45.82787 | 10.81338 | 30724 ft | 436 kts | 144° |
| 2026-05-04 12:33 | 45.80468 | 10.84038 | 30396 ft | 433 kts | 144° |
| 2026-05-04 12:33 | 45.78135 | 10.86752 | 30056 ft | 432 kts | 144° |
| 2026-05-04 12:34 | 45.75809 | 10.89454 | 29690 ft | 430 kts | 144° |
| 2026-05-04 12:34 | 45.73498 | 10.92141 | 29320 ft | 427 kts | 144° |
| 2026-05-04 12:34 | 45.71201 | 10.94813 | 28956 ft | 425 kts | 144° |
| 2026-05-04 12:34 | 45.68914 | 10.97465 | 28580 ft | 422 kts | 144° |
| 2026-05-04 12:35 | 45.66630 | 11.00108 | 28241 ft | 421 kts | 144° |
| 2026-05-04 12:35 | 45.64492 | 11.02957 | 27864 ft | 423 kts | 134° |
| 2026-05-04 12:35 | 45.62740 | 11.06351 | 27101 ft | 427 kts | 126° |
| 2026-05-04 12:35 | 45.61108 | 11.09954 | 25973 ft | 437 kts | 125° |
| 2026-05-04 12:36 | 45.59457 | 11.13638 | 24880 ft | 444 kts | 124° |
| 2026-05-04 12:36 | 45.57796 | 11.17371 | 23827 ft | 448 kts | 124° |
| 2026-05-04 12:36 | 45.55987 | 11.21010 | 22618 ft | 449 kts | 134° |
| 2026-05-04 12:36 | 45.53647 | 11.23935 | 21485 ft | 447 kts | 145° |
| 2026-05-04 12:37 | 45.51177 | 11.26562 | 20714 ft | 440 kts | 145° |
| 2026-05-04 12:37 | 45.48752 | 11.29145 | 20038 ft | 431 kts | 145° |
| 2026-05-04 12:37 | 45.46378 | 11.31680 | 19386 ft | 422 kts | 145° |
| 2026-05-04 12:37 | 45.44049 | 11.34168 | 18752 ft | 415 kts | 145° |
| 2026-05-04 12:38 | 45.41763 | 11.36610 | 18076 ft | 408 kts | 145° |
| 2026-05-04 12:38 | 45.39503 | 11.39019 | 17372 ft | 403 kts | 145° |
| 2026-05-04 12:38 | 45.37271 | 11.41393 | 16681 ft | 398 kts | 145° |
| 2026-05-04 12:38 | 45.35065 | 11.43732 | 16000 ft | 394 kts | 145° |
| 2026-05-04 12:39 | 45.32881 | 11.46046 | 15327 ft | 389 kts | 145° |
| 2026-05-04 12:39 | 45.30731 | 11.48325 | 14673 ft | 383 kts | 145° |
| 2026-05-04 12:39 | 45.28602 | 11.50575 | 14030 ft | 378 kts | 145° |
| 2026-05-04 12:39 | 45.26508 | 11.52783 | 13336 ft | 373 kts | 145° |
| 2026-05-04 12:40 | 45.24441 | 11.54959 | 12628 ft | 366 kts | 145° |
| 2026-05-04 12:40 | 45.22443 | 11.57064 | 11931 ft | 349 kts | 145° |
| 2026-05-04 12:40 | 45.20538 | 11.59075 | 11256 ft | 335 kts | 145° |
| 2026-05-04 12:40 | 45.18696 | 11.61016 | 10596 ft | 325 kts | 145° |
| 2026-05-04 12:41 | 45.16902 | 11.62902 | 9943 ft | 317 kts | 145° |
| 2026-05-04 12:41 | 45.15146 | 11.64744 | 9233 ft | 312 kts | 145° |
| 2026-05-04 12:41 | 45.13416 | 11.66556 | 8537 ft | 306 kts | 146° |
| 2026-05-04 12:41 | 45.11717 | 11.68336 | 7858 ft | 302 kts | 145° |
| 2026-05-04 12:42 | 45.10196 | 11.70318 | 7197 ft | 301 kts | 133° |
| 2026-05-04 12:42 | 45.08819 | 11.72527 | 6545 ft | 298 kts | 133° |
| 2026-05-04 12:42 | 45.07445 | 11.74742 | 5842 ft | 294 kts | 130° |
| 2026-05-04 12:42 | 45.06561 | 11.77316 | 5159 ft | 294 kts | 100° |
| 2026-05-04 12:43 | 45.06780 | 11.80145 | 4524 ft | 293 kts | 66° |
| 2026-05-04 12:43 | 45.07938 | 11.82477 | 3888 ft | 289 kts | 44° |
| 2026-05-04 12:43 | 45.09453 | 11.84301 | 3495 ft | 279 kts | 36° |
| 2026-05-04 12:43 | 45.10939 | 11.85819 | 3516 ft | 255 kts | 34° |
| 2026-05-04 12:44 | 45.12320 | 11.87236 | 3513 ft | 234 kts | 36° |
| 2026-05-04 12:44 | 45.13560 | 11.88587 | 3521 ft | 219 kts | 37° |
| 2026-05-04 12:44 | 45.14700 | 11.89893 | 3531 ft | 198 kts | 38° |
| 2026-05-04 12:44 | 45.15704 | 11.91086 | 3517 ft | 181 kts | 39° |
| 2026-05-04 12:45 | 45.16652 | 11.92243 | 3385 ft | 177 kts | 40° |
| 2026-05-04 12:45 | 45.17576 | 11.93395 | 3048 ft | 178 kts | 40° |
| 2026-05-04 12:45 | 45.18497 | 11.94543 | 2988 ft | 177 kts | 40° |
| 2026-05-04 12:45 | 45.19423 | 11.95703 | 2994 ft | 177 kts | 40° |
| 2026-05-04 12:46 | 45.20350 | 11.96869 | 2990 ft | 177 kts | 40° |
| 2026-05-04 12:46 | 45.21289 | 11.98020 | 3002 ft | 179 kts | 38° |
| 2026-05-04 12:46 | 45.22239 | 11.99147 | 2996 ft | 178 kts | 39° |
| 2026-05-04 12:46 | 45.23168 | 12.00296 | 2996 ft | 177 kts | 41° |
| 2026-05-04 12:47 | 45.24095 | 12.01461 | 2993 ft | 178 kts | 41° |
| 2026-05-04 12:47 | 45.25021 | 12.02632 | 2999 ft | 180 kts | 40° |
| 2026-05-04 12:47 | 45.25951 | 12.03811 | 2988 ft | 179 kts | 40° |
| 2026-05-04 12:47 | 45.26877 | 12.04988 | 2991 ft | 177 kts | 41° |
| 2026-05-04 12:48 | 45.27804 | 12.06165 | 3000 ft | 181 kts | 41° |
| 2026-05-04 12:48 | 45.28788 | 12.07416 | 3000 ft | 195 kts | 41° |
| 2026-05-04 12:48 | 45.29803 | 12.08706 | 2987 ft | 197 kts | 41° |
| 2026-05-04 12:48 | 45.30819 | 12.09999 | 2981 ft | 195 kts | 41° |
| 2026-05-04 12:49 | 45.31835 | 12.11291 | 2994 ft | 196 kts | 41° |
| 2026-05-04 12:49 | 45.32855 | 12.12590 | 3002 ft | 197 kts | 41° |
| 2026-05-04 12:49 | 45.33874 | 12.13890 | 2983 ft | 195 kts | 41° |
| 2026-05-04 12:49 | 45.34886 | 12.15180 | 2989 ft | 195 kts | 41° |
| 2026-05-04 12:50 | 45.35861 | 12.16424 | 2980 ft | 182 kts | 41° |
| 2026-05-04 12:50 | 45.36791 | 12.17610 | 2981 ft | 178 kts | 41° |
| 2026-05-04 12:50 | 45.37709 | 12.18784 | 3020 ft | 176 kts | 41° |
| 2026-05-04 12:50 | 45.38618 | 12.19944 | 2833 ft | 174 kts | 41° |
| 2026-05-04 12:51 | 45.39520 | 12.21097 | 2622 ft | 174 kts | 41° |
| 2026-05-04 12:51 | 45.40411 | 12.22236 | 2393 ft | 174 kts | 41° |
| 2026-05-04 12:51 | 45.41307 | 12.23381 | 2169 ft | 173 kts | 42° |
| 2026-05-04 12:51 | 45.42198 | 12.24521 | 1941 ft | 172 kts | 43° |
| 2026-05-04 12:52 | 45.43092 | 12.25666 | 1714 ft | 172 kts | 42° |
| 2026-05-04 12:52 | 45.43987 | 12.26812 | 1488 ft | 173 kts | 41° |
| 2026-05-04 12:52 | 45.44874 | 12.27948 | 1256 ft | 171 kts | 42° |
| 2026-05-04 12:52 | 45.45727 | 12.29041 | 1032 ft | 155 kts | 42° |
| 2026-05-04 12:53 | 45.46487 | 12.30019 | 835 ft | 141 kts | 44° |
| 2026-05-04 12:53 | 45.47184 | 12.30950 | 633 ft | 134 kts | 45° |
| 2026-05-04 12:53 | 45.47887 | 12.31816 | 436 ft | 133 kts | 45° |
| 2026-05-04 12:53 | 45.48574 | 12.32696 | 277 ft | 132 kts | 44° |
| 2026-05-04 12:54 | 45.49251 | 12.33566 | 91 ft | 130 kts | 45° |
| 2026-05-04 12:54 | 45.49894 | 12.34413 | 11 ft | 115 kts | 42° |
| 2026-05-04 12:54 | 45.50365 | 12.35001 | 10 ft | 65 kts | 42° |
| 2026-05-04 12:54 | 45.50575 | 12.35268 | 10 ft | 16 kts | 41° |
| 2026-05-04 12:55 | 45.50671 | 12.35357 | 16 ft | 18 kts | 27° |
| 2026-05-04 12:55 | 45.50793 | 12.35424 | 15 ft | 20 kts | 13° |
| 2026-05-04 12:55 | 45.50911 | 12.35455 | 16 ft | 16 kts | 11° |
| 2026-05-04 12:55 | 45.50978 | 12.35366 | 19 ft | 16 kts | 265° |
| 2026-05-04 12:56 | 45.50953 | 12.35211 | 19 ft | 15 kts | 244° |
| 2026-05-04 12:56 | 45.50875 | 12.35099 | 19 ft | 17 kts | 222° |
| 2026-05-04 12:56 | 45.50774 | 12.34967 | 16 ft | 22 kts | 223° |
| 2026-05-04 12:56 | 45.50670 | 12.34835 | 15 ft | 20 kts | 222° |
| 2026-05-04 12:57 | 45.50556 | 12.34690 | 16 ft | 23 kts | 222° |
| 2026-05-04 12:57 | 45.50436 | 12.34536 | 17 ft | 25 kts | 221° |
| 2026-05-04 12:57 | 45.50338 | 12.34409 | 20 ft | 15 kts | 223° |
| 2026-05-04 12:57 | 45.50265 | 12.34317 | 18 ft | 14 kts | 221° |
| 2026-05-04 12:58 | 45.50183 | 12.34209 | 17 ft | 18 kts | 221° |
| 2026-05-04 12:58 | 45.50081 | 12.34077 | 14 ft | 22 kts | 223° |
| 2026-05-04 12:58 | 45.49978 | 12.33946 | 14 ft | 10 kts | 222° |
| 2026-05-04 12:58 | 45.49972 | 12.33863 | 15 ft | 9 kts | 313° |
| 2026-05-04 12:59 | 45.49999 | 12.33819 | 15 ft | 0 kts | 309° |